createdAt,value
2022-11-13T00:01:15.677Z,100040.94
2022-11-13T00:03:43.676Z,100032.13
2022-11-13T00:06:12.770Z,100029.47
2022-11-13T00:08:40.729Z,100032.13
2022-11-13T00:11:11.381Z,100039.28
2022-11-13T00:13:40.045Z,100029.47
2022-11-13T00:16:11.643Z,100028.63
2022-11-13T00:18:39.521Z,100029.47
2022-11-13T00:21:07.613Z,100017.97
2022-11-13T00:23:36.644Z,100022.47
2022-11-13T00:26:06.413Z,100027.81
2022-11-13T00:28:34.988Z,100029.47
2022-11-13T00:31:03.518Z,100024.31
2022-11-13T00:34:02.056Z,100024.13
2022-11-13T00:36:26.305Z,100022.47
2022-11-13T00:38:54.515Z,100030.47
2022-11-13T00:41:23.365Z,100033.13
2022-11-13T00:43:50.893Z,100025.16
2022-11-13T00:46:18.685Z,100020.78
2022-11-13T00:48:45.957Z,100027.81
2022-11-13T00:51:13.485Z,100026.13
2022-11-13T00:53:41.305Z,100014.63
2022-11-13T00:56:08.556Z,100015.47
2022-11-13T00:58:35.877Z,100018.13
2022-11-13T01:01:10.102Z,100013.81
2022-11-13T01:03:37.868Z,100009.47
2022-11-13T01:06:19.468Z,100000.50
2022-11-13T01:08:46.763Z,99997.84
2022-11-13T01:11:17.879Z,100002.16
2022-11-13T01:13:47.864Z,100002.34
2022-11-13T01:16:17.421Z,100000.50
2022-11-13T01:18:45.103Z,99990.81
2022-11-13T01:21:18.552Z,99997.84
2022-11-13T01:23:46.187Z,100000.66
2022-11-13T01:26:14.937Z,99990.81
2022-11-13T01:28:43.652Z,99996.16
2022-11-13T01:31:15.184Z,99990.81
2022-11-13T01:33:43.525Z,99985.50
2022-11-13T01:36:14.200Z,99990.00
2022-11-13T01:38:42.492Z,99985.50
2022-11-13T01:41:22.919Z,99985.50
2022-11-13T01:43:53.097Z,99974.84
2022-11-13T01:46:23.988Z,99973.19
2022-11-13T01:49:12.106Z,99967.84
2022-11-13T01:52:11.044Z,99970.38
2022-11-13T01:54:43.738Z,99967.84
2022-11-13T01:57:12.772Z,99969.50
2022-11-13T01:59:43.247Z,99970.53
2022-11-13T02:02:10.836Z,99962.53
2022-11-13T02:04:38.755Z,99957.19
2022-11-13T02:07:09.274Z,99953.53
2022-11-13T02:09:49.556Z,99953.72
2022-11-13T02:12:25.327Z,99942.06
2022-11-13T02:14:55.300Z,99943.88
2022-11-13T02:17:32.940Z,99940.41
2022-11-13T02:20:02.768Z,99939.53
2022-11-13T02:22:57.052Z,99935.91
2022-11-13T02:25:29.971Z,99930.56
2022-11-13T02:27:57.380Z,99928.88
2022-11-13T02:30:28.297Z,99931.53
2022-11-13T02:32:57.744Z,99933.38
2022-11-13T02:35:27.421Z,99931.53
2022-11-13T02:37:56.986Z,99936.88
2022-11-13T02:40:24.966Z,99934.22
2022-11-13T02:42:52.728Z,99933.38
2022-11-13T02:45:20.079Z,99934.22
2022-11-13T02:47:47.663Z,99933.38
2022-11-13T02:50:16.232Z,99940.53
2022-11-13T02:52:43.652Z,99943.22
2022-11-13T02:55:10.963Z,99937.06
2022-11-13T02:57:38.488Z,99937.06
2022-11-13T03:00:10.701Z,99940.53
2022-11-13T03:02:41.917Z,99932.56
2022-11-13T03:05:12.583Z,99928.88
2022-11-13T03:07:41.979Z,99931.53
2022-11-13T03:10:10.747Z,99926.41
2022-11-13T03:12:40.517Z,99919.41
2022-11-13T03:15:09.077Z,99916.72
2022-11-13T03:17:36.482Z,99915.75
2022-11-13T03:20:08.392Z,99910.41
2022-11-13T03:22:35.970Z,99913.25
2022-11-13T03:25:08.928Z,99924.72
2022-11-13T03:27:38.032Z,99926.41
2022-11-13T03:30:06.098Z,99936.19
2022-11-13T03:32:33.384Z,99937.88
2022-11-13T03:35:00.926Z,99946.03
2022-11-13T03:37:28.278Z,99948.53
2022-11-13T03:39:55.535Z,99946.03
2022-11-13T03:42:23.235Z,99933.72
2022-11-13T03:44:51.090Z,99950.53
2022-11-13T03:47:18.584Z,99953.03
2022-11-13T03:49:46.148Z,99958.50
2022-11-13T03:52:13.360Z,99954.00
2022-11-13T03:54:40.979Z,99957.50
2022-11-13T03:57:09.357Z,99951.34
2022-11-13T03:59:36.608Z,99961.19
2022-11-13T04:02:03.899Z,99955.84
2022-11-13T04:04:32.468Z,99950.53
2022-11-13T04:06:59.716Z,99945.19
2022-11-13T04:09:27.296Z,99944.38
2022-11-13T04:11:55.394Z,99949.69
2022-11-13T04:14:23.700Z,99950.53
2022-11-13T04:16:51.181Z,99947.88
2022-11-13T04:19:18.440Z,99949.69
2022-11-13T04:21:45.966Z,99943.53
2022-11-13T04:24:13.447Z,99943.53
2022-11-13T04:26:40.724Z,99934.53
2022-11-13T04:29:08.412Z,99941.72
2022-11-13T04:31:35.666Z,99932.91
2022-11-13T04:34:02.968Z,99946.22
2022-11-13T04:36:30.460Z,99945.19
2022-11-13T04:38:57.727Z,99938.22
2022-11-13T04:41:43.595Z,99932.91
2022-11-13T04:44:11.178Z,99932.03
2022-11-13T04:46:38.449Z,99936.38
2022-11-13T04:49:05.939Z,99938.22
2022-11-13T04:51:33.305Z,99950.53
2022-11-13T04:54:00.551Z,99946.22
2022-11-13T04:56:28.081Z,99933.72
2022-11-13T04:58:55.283Z,99936.53
2022-11-13T05:01:22.727Z,99938.22
2022-11-13T05:03:50.276Z,99945.34
2022-11-13T05:06:17.546Z,99941.84
2022-11-13T05:08:45.028Z,99941.84
2022-11-13T05:11:12.231Z,99939.19
2022-11-13T05:13:40.140Z,99947.19
2022-11-13T05:16:10.999Z,99940.22
2022-11-13T05:18:38.652Z,99940.03
2022-11-13T05:21:07.480Z,99940.03
2022-11-13T05:23:35.660Z,99938.22
2022-11-13T05:26:21.987Z,99933.03
2022-11-13T05:28:49.502Z,99929.38
2022-11-13T05:31:16.760Z,99930.38
2022-11-13T05:33:44.419Z,99925.06
2022-11-13T05:36:14.724Z,99925.06
2022-11-13T05:38:42.600Z,99924.22
2022-11-13T05:41:15.585Z,99925.88
2022-11-13T05:43:44.147Z,99920.56
2022-11-13T05:46:20.359Z,99932.22
2022-11-13T05:48:52.347Z,99930.38
2022-11-13T05:51:22.953Z,99930.53
2022-11-13T05:53:51.279Z,99922.53
2022-11-13T05:56:21.489Z,99925.22
2022-11-13T05:58:50.564Z,99919.06
2022-11-13T06:01:20.472Z,99922.53
2022-11-13T06:03:48.372Z,99920.88
2022-11-13T06:06:18.668Z,99916.38
2022-11-13T06:08:47.420Z,99931.53
2022-11-13T06:11:21.059Z,99928.88
2022-11-13T06:13:49.826Z,99930.69
2022-11-13T06:16:26.341Z,99929.84
2022-11-13T06:19:02.884Z,99936.00
2022-11-13T06:21:32.520Z,99940.50
2022-11-13T06:24:01.422Z,99936.19
2022-11-13T06:26:31.589Z,99938.00
2022-11-13T06:29:00.539Z,99938.84
2022-11-13T06:31:30.869Z,99930.88
2022-11-13T06:33:59.371Z,99925.69
2022-11-13T06:36:29.642Z,99931.84
2022-11-13T06:38:57.505Z,99932.66
2022-11-13T06:41:32.231Z,99936.34
2022-11-13T06:44:02.917Z,99931.84
2022-11-13T06:46:31.069Z,99926.53
2022-11-13T06:48:58.880Z,99925.69
2022-11-13T06:51:31.366Z,99923.03
2022-11-13T06:53:58.820Z,99924.88
2022-11-13T06:56:26.492Z,99916.88
2022-11-13T06:58:54.934Z,99914.38
2022-11-13T07:01:24.308Z,99917.84
2022-11-13T07:03:52.060Z,99909.88
2022-11-13T07:06:24.510Z,99917.84
2022-11-13T07:08:52.552Z,99917.03
2022-11-13T07:11:21.845Z,99916.88
2022-11-13T07:13:50.391Z,99916.88
2022-11-13T07:16:18.495Z,99917.69
2022-11-13T07:18:53.614Z,99919.53
2022-11-13T07:21:22.528Z,99915.88
2022-11-13T07:23:50.706Z,99915.88
2022-11-13T07:26:18.845Z,99918.53
2022-11-13T07:28:47.395Z,99912.38
2022-11-13T07:31:16.190Z,99897.22
2022-11-13T07:33:44.454Z,99899.88
2022-11-13T07:36:11.776Z,99907.88
2022-11-13T07:38:39.331Z,99908.56
2022-11-13T07:41:07.736Z,99920.22
2022-11-13T07:43:35.552Z,99919.19
2022-11-13T07:46:02.893Z,99919.19
2022-11-13T07:48:30.734Z,99910.25
2022-11-13T07:51:02.459Z,99912.91
2022-11-13T07:53:30.594Z,99908.56
2022-11-13T07:56:01.045Z,99912.91
2022-11-13T07:58:28.922Z,99904.91
2022-11-13T08:01:04.753Z,99909.72
2022-11-13T08:03:32.629Z,99912.53
2022-11-13T08:06:05.163Z,99909.53
2022-11-13T08:08:33.309Z,99910.00
2022-11-13T08:11:08.929Z,99915.47
2022-11-13T08:13:37.944Z,99919.16
2022-11-13T08:16:05.941Z,99918.16
2022-11-13T08:18:33.723Z,99913.50
2022-11-13T08:21:07.019Z,99909.00
2022-11-13T08:23:36.933Z,99908.03
2022-11-13T08:26:05.784Z,99909.84
2022-11-13T08:28:34.175Z,99916.50
2022-11-13T08:31:02.558Z,99916.19
2022-11-13T08:33:30.634Z,99909.88
2022-11-13T08:36:00.269Z,99909.56
2022-11-13T08:38:28.249Z,99910.25
2022-11-13T08:41:03.252Z,99915.22
2022-11-13T08:43:35.005Z,99903.94
2022-11-13T08:46:02.694Z,99904.47
2022-11-13T08:48:30.619Z,99918.41
2022-11-13T08:50:58.340Z,99913.59
2022-11-13T08:53:26.379Z,99921.94
2022-11-13T08:55:53.612Z,99926.28
2022-11-13T08:58:21.173Z,99929.47
2022-11-13T09:00:48.651Z,99929.97
2022-11-13T09:03:16.196Z,99926.78
2022-11-13T09:05:43.435Z,99925.00
2022-11-13T09:08:11.048Z,99928.16
2022-11-13T09:10:38.378Z,99928.66
2022-11-13T09:13:08.683Z,99927.53
2022-11-13T09:15:37.968Z,99929.22
2022-11-13T09:18:05.665Z,99931.38
2022-11-13T09:20:33.734Z,99919.72
2022-11-13T09:23:03.660Z,99922.06
2022-11-13T09:25:36.972Z,99920.88
2022-11-13T09:28:06.108Z,99924.22
2022-11-13T09:30:33.936Z,99920.56
2022-11-13T09:33:01.446Z,99925.72
2022-11-13T09:35:36.601Z,99914.06
2022-11-13T09:38:11.023Z,99914.72
2022-11-13T09:40:54.245Z,99915.38
2022-11-13T09:43:49.278Z,99922.41
2022-11-13T09:46:23.464Z,99924.06
2022-11-13T09:48:58.996Z,99922.41
2022-11-13T09:51:33.335Z,99924.06
2022-11-13T09:54:05.460Z,99924.72
2022-11-13T09:56:42.550Z,99922.06
2022-11-13T09:59:47.003Z,99925.41
2022-11-13T10:02:33.226Z,99911.06
2022-11-13T10:05:09.821Z,99912.72
2022-11-13T10:07:37.808Z,99908.22
2022-11-13T10:10:34.485Z,99903.72
2022-11-13T10:13:04.252Z,99910.75
2022-11-13T10:15:31.891Z,99905.41
2022-11-13T10:18:23.913Z,99915.25
2022-11-13T10:21:18.318Z,99908.06
2022-11-13T10:23:54.788Z,99906.22
2022-11-13T10:26:27.355Z,99902.75
2022-11-13T10:29:10.071Z,99901.72
2022-11-13T10:31:49.921Z,99905.06
2022-11-13T10:34:19.265Z,99891.56
2022-11-13T10:37:16.088Z,99900.38
2022-11-13T10:39:46.984Z,99899.41
2022-11-13T10:42:23.332Z,99896.75
2022-11-13T10:44:57.682Z,99894.06
2022-11-13T10:48:02.111Z,99901.88
2022-11-13T10:50:25.696Z,99896.75
2022-11-13T10:52:55.501Z,99895.72
2022-11-13T10:55:23.007Z,99888.41
2022-11-13T10:58:01.811Z,99891.06
2022-11-13T11:00:36.635Z,99888.06
2022-11-13T11:03:07.774Z,99885.22
2022-11-13T11:05:35.787Z,99889.38
2022-11-13T11:08:09.916Z,99888.41
2022-11-13T11:10:59.412Z,99883.72
2022-11-13T11:13:27.869Z,99882.03
2022-11-13T11:15:59.497Z,99877.38
2022-11-13T11:18:39.034Z,99878.22
2022-11-13T11:21:11.391Z,99883.72
2022-11-13T11:23:55.756Z,99876.38
2022-11-13T11:26:34.636Z,99876.38
2022-11-13T11:29:32.041Z,99860.53
2022-11-13T11:32:07.066Z,99865.72
2022-11-13T11:35:15.090Z,99862.03
2022-11-13T11:38:09.060Z,99851.38
2022-11-13T11:40:41.829Z,99853.06
2022-11-13T11:43:27.381Z,99842.69
2022-11-13T11:45:54.904Z,99846.38
2022-11-13T11:48:31.111Z,99836.72
2022-11-13T11:51:13.248Z,99833.22
2022-11-13T11:54:11.630Z,99824.22
2022-11-13T11:56:50.585Z,99833.22
2022-11-13T11:59:46.594Z,99827.06
2022-11-13T12:02:47.205Z,99820.69
2022-11-13T12:05:29.644Z,99823.38
2022-11-13T12:08:07.672Z,99810.22
2022-11-13T12:10:46.257Z,99809.38
2022-11-13T12:13:33.796Z,99809.38
2022-11-13T12:16:22.321Z,99802.38
2022-11-13T12:19:05.125Z,99795.38
2022-11-13T12:21:56.875Z,99802.38
2022-11-13T12:24:35.193Z,99790.91
2022-11-13T12:27:18.975Z,99787.38
2022-11-13T12:30:01.320Z,99788.38
2022-11-13T12:32:44.932Z,99769.72
2022-11-13T12:35:19.062Z,99768.91
2022-11-13T12:37:51.107Z,99760.91
2022-11-13T12:40:33.801Z,99762.53
2022-11-13T12:43:07.701Z,99758.03
2022-11-13T12:45:38.215Z,99766.88
2022-11-13T12:48:14.794Z,99757.88
2022-11-13T12:50:42.520Z,99763.03
2022-11-13T12:53:12.036Z,99757.34
2022-11-13T12:55:40.920Z,99760.03
2022-11-13T12:58:20.904Z,99762.69
2022-11-13T13:00:56.746Z,99756.38
2022-11-13T13:03:35.713Z,99758.00
2022-11-13T13:06:33.933Z,99758.69
2022-11-13T13:09:11.892Z,99756.00
2022-11-13T13:12:20.296Z,99751.34
2022-11-13T13:15:00.096Z,99751.50
2022-11-13T13:17:27.603Z,99742.50
2022-11-13T13:20:18.047Z,99732.84
2022-11-13T13:22:56.427Z,99728.34
2022-11-13T13:25:42.340Z,99733.69
2022-11-13T13:28:09.581Z,99730.00
2022-11-13T13:31:04.102Z,99731.03
2022-11-13T13:33:37.292Z,99735.34
2022-11-13T13:36:15.098Z,99724.66
2022-11-13T13:39:12.520Z,99730.81
2022-11-13T13:42:16.727Z,99721.34
2022-11-13T13:44:50.285Z,99717.69
2022-11-13T13:47:32.201Z,99723.00
2022-11-13T13:49:59.712Z,99716.81
2022-11-13T13:52:31.755Z,99716.00
2022-11-13T13:55:02.733Z,99711.50
2022-11-13T13:57:30.527Z,99704.34
2022-11-13T13:59:58.116Z,99710.34
2022-11-13T14:02:25.724Z,99706.66
2022-11-13T14:04:54.947Z,99700.97
2022-11-13T14:07:30.463Z,99698.13
2022-11-13T14:10:13.104Z,99694.94
2022-11-13T14:12:42.718Z,99688.59
2022-11-13T14:15:32.732Z,99696.25
2022-11-13T14:20:55.920Z,99692.06
2022-11-13T14:23:51.496Z,99690.88
2022-11-13T14:26:20.806Z,99689.84
2022-11-13T14:28:59.995Z,99686.19
2022-11-13T14:31:30.610Z,99678.84
2022-11-13T14:34:02.979Z,99680.50
2022-11-13T14:36:34.865Z,99681.34
2022-11-13T14:39:02.792Z,99683.16
2022-11-13T14:41:40.869Z,99682.19
2022-11-13T14:44:11.697Z,99683.81
2022-11-13T14:46:47.022Z,99678.50
2022-11-13T14:49:15.512Z,99673.97
2022-11-13T14:51:55.344Z,99668.00
2022-11-13T14:55:07.974Z,99674.34
2022-11-13T14:57:26.711Z,99678.84
2022-11-13T14:59:53.927Z,99672.84
2022-11-13T15:02:22.155Z,99669.53
2022-11-13T15:04:49.750Z,99673.19
2022-11-13T15:07:41.072Z,99670.72
2022-11-13T15:10:15.363Z,99671.72
2022-11-13T15:12:43.126Z,99662.88
2022-11-13T15:15:15.978Z,99662.22
2022-11-13T15:17:45.677Z,99653.56
2022-11-13T15:20:17.157Z,99659.91
2022-11-13T15:22:45.587Z,99655.56
2022-11-13T15:25:17.053Z,99654.75
2022-11-13T15:27:44.711Z,99653.94
2022-11-13T15:30:13.063Z,99658.59
2022-11-13T15:32:41.094Z,99668.25
2022-11-13T15:35:14.831Z,99665.78
2022-11-13T15:37:42.868Z,99673.78
2022-11-13T15:40:10.752Z,99675.59
2022-11-13T15:42:38.461Z,99670.47
2022-11-13T15:45:06.392Z,99669.59
2022-11-13T15:47:36.448Z,99672.28
2022-11-13T15:50:14.769Z,99672.28
2022-11-13T15:52:47.183Z,99665.28
2022-11-13T15:55:33.305Z,99668.13
2022-11-13T15:58:02.211Z,99671.63
2022-11-13T16:00:30.605Z,99666.47
2022-11-13T16:02:58.681Z,99670.13
2022-11-13T16:05:29.456Z,99679.16
2022-11-13T16:07:57.567Z,99683.66
2022-11-13T16:10:25.438Z,99681.00
2022-11-13T16:12:53.628Z,99689.16
2022-11-13T16:15:21.729Z,99683.66
2022-11-13T16:17:54.034Z,99684.00
2022-11-13T16:20:21.552Z,99678.66
2022-11-13T16:22:49.884Z,99681.31
2022-11-13T16:25:19.970Z,99681.31
2022-11-13T16:27:47.665Z,99679.84
2022-11-13T16:30:17.428Z,99695.03
2022-11-13T16:32:44.988Z,99688.00
2022-11-13T16:35:16.908Z,99688.00
2022-11-13T16:37:44.936Z,99680.00
2022-11-13T16:40:20.043Z,99680.19
2022-11-13T16:42:48.126Z,99683.69
2022-11-13T16:45:16.924Z,99685.53
2022-11-13T16:47:45.936Z,99690.00
2022-11-13T16:50:17.578Z,99691.03
2022-11-13T16:52:45.327Z,99694.53
2022-11-13T16:55:13.204Z,99681.34
2022-11-13T16:57:41.457Z,99687.72
2022-11-13T17:00:12.867Z,99679.72
2022-11-13T17:02:40.482Z,99680.53
2022-11-13T17:05:12.283Z,99690.38
2022-11-13T17:07:40.441Z,99685.19
2022-11-13T17:10:30.888Z,99686.03
2022-11-13T17:12:59.816Z,99687.03
2022-11-13T17:15:27.226Z,99687.03
2022-11-13T17:17:58.111Z,99684.38
2022-11-13T17:20:25.457Z,99685.41
2022-11-13T17:22:53.159Z,99687.03
2022-11-13T17:25:23.243Z,99685.41
2022-11-13T17:27:50.848Z,99685.41
2022-11-13T17:30:18.257Z,99675.72
2022-11-13T17:32:46.312Z,99671.41
2022-11-13T17:35:13.623Z,99674.91
2022-11-13T17:37:41.534Z,99673.06
2022-11-13T17:40:11.043Z,99673.22
2022-11-13T17:42:41.309Z,99673.22
2022-11-13T17:45:09.472Z,99669.72
2022-11-13T17:47:37.040Z,99680.41
2022-11-13T17:50:07.631Z,99682.22
2022-11-13T17:52:35.614Z,99670.75
2022-11-13T17:55:05.998Z,99670.75
2022-11-13T17:57:33.902Z,99670.75
2022-11-13T18:00:01.237Z,99675.41
2022-11-13T18:02:28.936Z,99674.41
2022-11-13T18:04:59.152Z,99668.06
2022-11-13T18:07:27.513Z,99661.88
2022-11-13T18:09:54.895Z,99659.41
2022-11-13T18:12:22.557Z,99661.06
2022-11-13T18:14:52.521Z,99654.09
2022-11-13T18:17:22.191Z,99651.41
2022-11-13T18:19:50.731Z,99649.56
2022-11-13T18:22:18.401Z,99657.41
2022-11-13T18:24:45.801Z,99657.41
2022-11-13T18:27:14.240Z,99661.72
2022-11-13T18:29:41.591Z,99663.41
2022-11-13T18:32:09.217Z,99665.22
2022-11-13T18:34:36.738Z,99671.41
2022-11-13T18:37:04.281Z,99665.06
2022-11-13T18:39:31.617Z,99662.38
2022-11-13T18:42:00.308Z,99664.06
2022-11-13T18:44:27.924Z,99671.88
2022-11-13T18:46:55.427Z,99665.72
2022-11-13T18:49:22.942Z,99667.34
2022-11-13T18:51:50.789Z,99661.03
2022-11-13T18:54:18.143Z,99658.38
2022-11-13T18:56:45.673Z,99664.53
2022-11-13T18:59:12.949Z,99665.34
2022-11-13T19:01:42.044Z,99660.03
2022-11-13T19:04:25.650Z,99665.34
2022-11-13T19:06:53.575Z,99665.19
2022-11-13T19:09:20.864Z,99667.03
2022-11-13T19:11:50.113Z,99662.53
2022-11-13T19:14:18.225Z,99668.69
2022-11-13T19:16:46.587Z,99664.19
2022-11-13T19:19:17.873Z,99666.00
2022-11-13T19:21:46.738Z,99663.34
2022-11-13T19:24:14.908Z,99659.03
2022-11-13T19:26:44.213Z,99663.34
2022-11-13T19:29:12.042Z,99656.38
2022-11-13T19:31:40.555Z,99659.69
2022-11-13T19:34:08.927Z,99658.00
2022-11-13T19:36:36.915Z,99666.00
2022-11-13T19:39:05.238Z,99667.84
2022-11-13T19:41:33.172Z,99662.34
2022-11-13T19:44:00.550Z,99665.03
2022-11-13T19:46:31.865Z,99653.53
2022-11-13T19:49:00.356Z,99655.19
2022-11-13T19:51:28.399Z,99647.34
2022-11-13T19:53:58.330Z,99652.69
2022-11-13T19:56:28.506Z,99651.03
2022-11-13T19:58:57.345Z,99651.84
2022-11-13T20:01:28.051Z,99652.69
2022-11-13T20:04:05.673Z,99651.69
2022-11-13T20:06:33.407Z,99651.69
2022-11-13T20:09:02.342Z,99641.19
2022-11-13T20:11:30.380Z,99649.84
2022-11-13T20:13:58.259Z,99650.66
2022-11-13T20:16:26.359Z,99650.66
2022-11-13T20:18:57.087Z,99647.84
2022-11-13T20:21:30.275Z,99655.00
2022-11-13T20:23:59.136Z,99651.34
2022-11-13T20:26:27.516Z,99647.00
2022-11-13T20:28:54.943Z,99644.34
2022-11-13T20:31:24.475Z,99642.50
2022-11-13T20:33:54.053Z,99643.31
2022-11-13T20:36:23.162Z,99648.66
2022-11-13T20:38:55.206Z,99637.16
2022-11-13T20:41:24.167Z,99627.31
2022-11-13T20:43:52.543Z,99631.00
2022-11-13T20:46:20.974Z,99631.00
2022-11-13T20:48:48.779Z,99631.00
2022-11-13T20:51:21.918Z,99629.34
2022-11-13T20:53:51.349Z,99640.00
2022-11-13T20:56:20.865Z,99634.66
2022-11-13T20:58:48.377Z,99641.03
2022-11-13T21:01:23.387Z,99642.66
2022-11-13T21:03:52.072Z,99650.66
2022-11-13T21:06:22.053Z,99647.00
2022-11-13T21:08:49.417Z,99640.84
2022-11-13T21:11:19.438Z,99647.19
2022-11-13T21:13:49.090Z,99645.34
2022-11-13T21:16:18.101Z,99645.34
2022-11-13T21:18:46.010Z,99639.00
2022-11-13T21:21:19.252Z,99647.00
2022-11-13T21:23:47.942Z,99646.19
2022-11-13T21:26:16.369Z,99641.69
2022-11-13T21:28:44.043Z,99642.66
2022-11-13T21:31:17.007Z,99644.34
2022-11-13T21:33:45.904Z,99640.00
2022-11-13T21:36:22.020Z,99640.00
2022-11-13T21:38:50.753Z,99650.66
2022-11-13T21:41:22.260Z,99650.66
2022-11-13T21:44:04.593Z,99643.69
2022-11-13T21:46:35.101Z,99633.84
2022-11-13T21:49:05.382Z,99633.03
2022-11-13T21:51:34.972Z,99628.50
2022-11-13T21:54:02.567Z,99629.34
2022-11-13T21:56:31.854Z,99626.00
2022-11-13T21:58:59.131Z,99614.53
2022-11-13T22:01:27.507Z,99626.88
2022-11-13T22:03:55.154Z,99633.19
2022-11-13T22:06:29.217Z,99626.00
2022-11-13T22:08:58.898Z,99632.19
2022-11-13T22:11:28.664Z,99632.19
2022-11-13T22:13:56.702Z,99627.84
2022-11-13T22:16:25.759Z,99624.38
2022-11-13T22:18:57.522Z,99624.38
2022-11-13T22:21:27.070Z,99620.88
2022-11-13T22:23:54.797Z,99625.34
2022-11-13T22:26:23.816Z,99634.22
2022-11-13T22:28:51.938Z,99622.69
2022-11-13T22:31:26.397Z,99628.88
2022-11-13T22:33:55.368Z,99632.38
2022-11-13T22:36:27.634Z,99617.34
2022-11-13T22:38:55.688Z,99612.88
2022-11-13T22:41:29.317Z,99616.53
2022-11-13T22:44:02.351Z,99609.53
2022-11-13T22:46:31.761Z,99610.38
2022-11-13T22:49:01.689Z,99613.03
2022-11-13T22:51:31.849Z,99613.03
2022-11-13T22:54:01.199Z,99616.53
2022-11-13T22:56:31.489Z,99618.53
2022-11-13T22:59:01.196Z,99618.38
2022-11-13T23:01:34.123Z,99611.34
2022-11-13T23:04:05.240Z,99608.69
2022-11-13T23:06:35.152Z,99608.69
2022-11-13T23:09:04.172Z,99607.03
2022-11-13T23:11:39.572Z,99595.56
2022-11-13T23:14:10.983Z,99594.53
2022-11-13T23:16:39.237Z,99592.69
2022-11-13T23:19:07.344Z,99584.06
2022-11-13T23:21:34.938Z,99583.22
2022-11-13T23:24:03.291Z,99578.72
2022-11-13T23:26:30.865Z,99580.38
2022-11-13T23:28:58.404Z,99568.06
2022-11-13T23:31:25.655Z,99573.41
2022-11-13T23:33:53.300Z,99568.06
2022-11-13T23:36:20.626Z,99557.41
2022-11-13T23:38:48.341Z,99560.88
2022-11-13T23:41:15.589Z,99560.88
2022-11-13T23:46:30.319Z,99553.72
2022-11-13T23:48:57.820Z,99557.41
2022-11-13T23:51:25.347Z,99561.88
2022-11-13T23:53:52.726Z,99561.06
2022-11-13T23:56:20.268Z,99560.22
2022-11-13T23:58:47.508Z,99568.22
